createdAt,value
2022-10-14T00:01:06.481Z,9.15
2022-10-14T00:03:34.041Z,9.40
2022-10-14T00:06:05.256Z,7.72
2022-10-14T00:08:31.876Z,7.30
2022-10-14T00:11:07.480Z,7.15
2022-10-14T00:13:34.537Z,6.70
2022-10-14T00:16:01.663Z,5.90
2022-10-14T00:18:28.359Z,10.48
2022-10-14T00:21:00.411Z,8.10
2022-10-14T00:23:27.426Z,7.10
2022-10-14T00:25:54.572Z,13.60
2022-10-14T00:28:21.256Z,7.57
2022-10-14T00:31:01.895Z,8.85
2022-10-14T00:33:29.085Z,10.20
2022-10-14T00:36:00.035Z,11.40
2022-10-14T00:38:27.242Z,13.10
2022-10-14T00:40:54.505Z,10.55
2022-10-14T00:43:23.147Z,16.02
2022-10-14T00:45:49.717Z,10.57
2022-10-14T00:48:18.929Z,6.80
2022-10-14T00:50:49.039Z,11.80
2022-10-14T00:53:16.078Z,11.20
2022-10-14T00:55:43.386Z,10.30
2022-10-14T00:58:10.602Z,12.18
2022-10-14T01:00:38.105Z,8.88
2022-10-14T01:03:17.725Z,6.97
2022-10-14T01:06:01.771Z,8.18
2022-10-14T01:08:35.938Z,9.73
2022-10-14T01:13:39.528Z,7.95
2022-10-14T01:16:17.931Z,6.80
2022-10-14T01:19:04.741Z,7.28
2022-10-14T01:21:41.622Z,10.10
2022-10-14T01:24:30.487Z,8.75
2022-10-14T01:27:02.270Z,7.97
2022-10-14T01:30:01.379Z,7.10
2022-10-14T01:32:37.227Z,6.50
2022-10-14T01:35:10.184Z,7.15
2022-10-14T01:37:42.219Z,8.40
2022-10-14T01:40:14.913Z,9.15
2022-10-14T01:42:43.037Z,10.43
2022-10-14T01:45:16.785Z,5.65
2022-10-14T01:47:44.745Z,6.82
2022-10-14T01:50:21.219Z,10.07
2022-10-14T01:52:52.303Z,8.13
2022-10-14T01:55:23.096Z,8.60
2022-10-14T01:57:53.109Z,8.65
2022-10-14T02:00:19.817Z,6.07
2022-10-14T02:02:46.532Z,6.88
2022-10-14T02:05:28.258Z,7.00
2022-10-14T02:08:06.035Z,6.25
2022-10-14T02:10:41.877Z,7.03
2022-10-14T02:13:34.362Z,10.93
2022-10-14T02:16:25.241Z,10.35
2022-10-14T02:19:08.117Z,10.48
2022-10-14T02:21:43.343Z,8.82
2022-10-14T02:24:25.287Z,6.75
2022-10-14T02:26:55.707Z,6.75
2022-10-14T02:29:23.486Z,7.68
2022-10-14T02:31:51.706Z,5.82
2022-10-14T02:34:22.028Z,7.05
2022-10-14T02:36:49.956Z,6.60
2022-10-14T02:39:25.892Z,6.28
2022-10-14T02:41:52.682Z,14.63
2022-10-14T02:44:19.454Z,12.65
2022-10-14T02:46:46.124Z,15.98
2022-10-14T02:49:12.984Z,13.45
2022-10-14T02:51:39.606Z,12.57
2022-10-14T02:54:06.181Z,10.55
2022-10-14T02:56:32.881Z,14.45
2022-10-14T02:58:59.794Z,10.77
2022-10-14T03:01:26.481Z,8.43
2022-10-14T03:03:53.174Z,8.80
2022-10-14T03:06:20.020Z,13.05
2022-10-14T03:08:46.733Z,10.75
2022-10-14T03:11:13.309Z,11.48
2022-10-14T03:13:39.912Z,10.55
2022-10-14T03:16:06.650Z,8.95
2022-10-14T03:18:33.456Z,11.05
2022-10-14T03:21:00.122Z,11.35
2022-10-14T03:23:26.738Z,10.25
2022-10-14T03:25:53.374Z,12.90
2022-10-14T03:28:20.026Z,11.68
2022-10-14T03:30:46.718Z,10.57
2022-10-14T03:33:15.112Z,11.57
2022-10-14T03:35:42.140Z,12.50
2022-10-14T03:38:08.791Z,13.00
2022-10-14T03:40:35.399Z,12.68
2022-10-14T03:43:02.040Z,9.95
2022-10-14T03:45:28.680Z,11.25
2022-10-14T03:47:56.142Z,12.07
2022-10-14T03:50:22.713Z,11.35
2022-10-14T03:52:53.354Z,10.65
2022-10-14T03:55:22.396Z,11.25
2022-10-14T03:57:49.062Z,10.68
2022-10-14T04:00:16.257Z,11.95
2022-10-14T04:02:43.197Z,9.77
2022-10-14T04:05:10.684Z,9.50
2022-10-14T04:07:37.357Z,8.23
2022-10-14T04:10:05.014Z,10.68
2022-10-14T04:12:32.117Z,9.73
2022-10-14T04:14:58.700Z,11.77
2022-10-14T04:17:25.531Z,17.15
2022-10-14T04:19:52.549Z,12.95
2022-10-14T04:22:20.168Z,9.50
2022-10-14T04:24:47.022Z,10.43
2022-10-14T04:27:13.629Z,12.57
2022-10-14T04:29:40.325Z,10.95
2022-10-14T04:32:07.022Z,12.27
2022-10-14T04:34:33.670Z,11.35
2022-10-14T04:37:00.525Z,14.32
2022-10-14T04:39:27.171Z,11.63
2022-10-14T04:41:53.817Z,10.23
2022-10-14T04:44:20.469Z,10.07
2022-10-14T04:46:47.025Z,11.55
2022-10-14T04:49:14.684Z,12.25
2022-10-14T04:51:41.238Z,11.55
2022-10-14T04:54:07.852Z,12.55
2022-10-14T04:56:34.487Z,10.32
2022-10-14T04:59:01.137Z,10.77
2022-10-14T05:01:32.952Z,11.77
2022-10-14T05:04:00.472Z,13.25
2022-10-14T05:06:27.074Z,10.70
2022-10-14T05:08:53.708Z,12.45
2022-10-14T05:11:20.340Z,14.82
2022-10-14T05:13:47.002Z,12.00
2022-10-14T05:16:13.702Z,13.05
2022-10-14T05:18:40.430Z,14.82
2022-10-14T05:21:07.180Z,14.73
2022-10-14T05:23:33.765Z,12.57
2022-10-14T05:26:00.378Z,12.73
2022-10-14T05:28:27.062Z,12.85
2022-10-14T05:30:53.688Z,10.52
2022-10-14T05:33:20.262Z,11.05
2022-10-14T05:35:58.665Z,11.63
2022-10-14T05:38:25.988Z,11.18
2022-10-14T05:40:57.266Z,10.13
2022-10-14T05:43:30.952Z,13.15
2022-10-14T05:45:59.056Z,16.10
2022-10-14T05:48:25.692Z,12.45
2022-10-14T05:50:52.854Z,12.00
2022-10-14T05:53:19.472Z,12.95
2022-10-14T05:55:46.238Z,11.73
2022-10-14T05:58:12.832Z,15.45
2022-10-14T06:00:39.520Z,10.98
2022-10-14T06:03:06.200Z,12.35
2022-10-14T06:05:36.567Z,18.85
2022-10-14T06:08:03.458Z,20.95
2022-10-14T06:10:30.016Z,23.65
2022-10-14T06:12:57.352Z,23.30
2022-10-14T06:15:23.945Z,13.50
2022-10-14T06:17:50.690Z,16.75
2022-10-14T06:20:17.446Z,12.00
2022-10-14T06:22:44.164Z,19.77
2022-10-14T06:25:11.013Z,19.45
2022-10-14T06:27:37.587Z,21.55
2022-10-14T06:30:04.594Z,27.33
2022-10-14T06:32:31.259Z,28.92
2022-10-14T06:34:58.165Z,32.40
2022-10-14T06:37:24.753Z,22.40
2022-10-14T06:39:51.420Z,28.73
2022-10-14T06:42:18.025Z,23.65
2022-10-14T06:44:45.262Z,25.10
2022-10-14T06:47:11.837Z,25.98
2022-10-14T06:49:38.470Z,18.23
2022-10-14T06:52:05.074Z,24.67
2022-10-14T06:54:35.556Z,18.50
2022-10-14T06:57:05.019Z,19.42
2022-10-14T06:59:31.643Z,21.58
2022-10-14T07:01:58.293Z,16.92
2022-10-14T07:04:25.145Z,22.27
2022-10-14T07:06:51.974Z,17.23
2022-10-14T07:09:18.620Z,19.33
2022-10-14T07:11:45.272Z,16.25
2022-10-14T07:14:11.867Z,22.73
2022-10-14T07:16:38.564Z,28.02
2022-10-14T07:19:05.299Z,36.13
2022-10-14T07:21:31.909Z,23.95
2022-10-14T07:23:58.525Z,20.90
2022-10-14T07:26:25.292Z,23.52
2022-10-14T07:28:52.006Z,24.75
2022-10-14T07:31:18.654Z,25.45
2022-10-14T07:33:45.374Z,25.90
2022-10-14T07:36:16.086Z,26.77
2022-10-14T07:38:45.513Z,23.73
2022-10-14T07:41:18.612Z,30.42
2022-10-14T07:43:48.010Z,31.88
2022-10-14T07:46:16.354Z,35.47
2022-10-14T07:48:56.684Z,28.25
2022-10-14T07:51:24.649Z,30.48
2022-10-14T07:53:53.202Z,31.58
2022-10-14T07:56:20.676Z,33.33
2022-10-14T07:58:47.385Z,32.10
2022-10-14T08:01:16.032Z,34.03
2022-10-14T08:03:43.499Z,34.00
2022-10-14T08:06:10.526Z,34.65
2022-10-14T08:08:37.565Z,34.10
2022-10-14T08:11:13.372Z,36.88
2022-10-14T08:13:43.517Z,36.42
2022-10-14T08:16:15.771Z,33.92
2022-10-14T08:18:42.591Z,32.55
2022-10-14T08:21:09.257Z,34.17
2022-10-14T08:23:35.845Z,41.92
2022-10-14T08:26:02.574Z,31.40
2022-10-14T08:28:29.270Z,36.05
2022-10-14T08:30:56.172Z,33.65
2022-10-14T08:33:22.765Z,31.75
2022-10-14T08:35:53.865Z,31.70
2022-10-14T08:38:25.171Z,31.83
2022-10-14T08:41:13.885Z,39.30
2022-10-14T08:43:49.357Z,30.40
2022-10-14T08:46:34.422Z,34.38
2022-10-14T08:49:33.025Z,44.65
2022-10-14T08:52:21.079Z,27.70
2022-10-14T08:54:55.742Z,32.92
2022-10-14T08:57:31.043Z,36.85
2022-10-14T08:59:57.845Z,31.42
2022-10-14T09:02:36.585Z,34.10
2022-10-14T09:05:04.979Z,27.08
2022-10-14T09:07:33.504Z,26.10
2022-10-14T09:10:11.646Z,24.23
2022-10-14T09:12:39.804Z,27.58
2022-10-14T09:15:12.964Z,24.92
2022-10-14T09:17:58.836Z,23.17
2022-10-14T09:20:25.723Z,27.88
2022-10-14T09:23:02.086Z,27.58
2022-10-14T09:25:32.499Z,27.13
2022-10-14T09:27:59.152Z,29.60
2022-10-14T09:30:25.863Z,25.63
2022-10-14T09:32:55.647Z,21.08
2022-10-14T09:35:33.352Z,30.25
2022-10-14T09:38:00.124Z,24.52
2022-10-14T09:40:37.347Z,28.10
2022-10-14T09:43:10.121Z,25.35
2022-10-14T09:45:58.653Z,26.42
2022-10-14T09:48:49.317Z,28.52
2022-10-14T09:51:26.527Z,25.38
2022-10-14T09:53:55.711Z,27.77
2022-10-14T09:56:40.713Z,25.83
2022-10-14T09:59:21.110Z,20.70
2022-10-14T10:01:54.254Z,25.83
2022-10-14T10:04:40.445Z,22.25
2022-10-14T10:07:27.055Z,26.77
2022-10-14T10:10:18.097Z,20.92
2022-10-14T10:12:47.096Z,24.42
2022-10-14T10:15:19.838Z,23.08
2022-10-14T10:17:47.674Z,26.38
2022-10-14T10:20:28.288Z,31.98
2022-10-14T10:23:16.283Z,21.13
2022-10-14T10:25:43.081Z,28.02
2022-10-14T10:28:18.393Z,18.80
2022-10-14T10:31:32.580Z,18.90
2022-10-14T10:34:24.126Z,28.98
2022-10-14T10:37:05.382Z,23.70
2022-10-14T10:39:45.736Z,22.55
2022-10-14T10:42:25.783Z,24.30
2022-10-14T10:45:20.643Z,22.73
2022-10-14T10:50:30.090Z,20.77
2022-10-14T10:58:36.774Z,17.77
2022-10-14T11:01:36.581Z,20.55
2022-10-14T11:04:15.339Z,20.27
2022-10-14T11:07:32.067Z,20.85
2022-10-14T11:10:41.430Z,18.58
2022-10-14T11:13:21.322Z,18.90
2022-10-14T11:16:09.106Z,13.38
2022-10-14T11:18:55.950Z,18.13
2022-10-14T11:21:44.150Z,19.95
2022-10-14T11:24:19.754Z,18.80
2022-10-14T11:26:59.685Z,14.57
2022-10-14T11:29:46.524Z,16.08
2022-10-14T11:32:35.257Z,17.75
2022-10-14T11:35:37.790Z,17.73
2022-10-14T11:38:48.237Z,18.35
2022-10-14T11:41:43.849Z,18.85
2022-10-14T11:47:22.413Z,17.55
2022-10-14T11:49:57.811Z,12.05
2022-10-14T11:52:40.373Z,15.63
2022-10-14T11:55:16.290Z,13.50
2022-10-14T11:57:48.877Z,15.45
2022-10-14T12:00:55.608Z,15.98
2022-10-14T12:03:39.936Z,19.35
2022-10-14T12:06:35.003Z,14.63
2022-10-14T12:09:10.416Z,14.93
2022-10-14T12:11:48.120Z,17.50
2022-10-14T12:14:21.296Z,11.35
2022-10-14T12:16:49.763Z,11.53
2022-10-14T12:19:26.296Z,16.40
2022-10-14T12:22:14.723Z,13.63
2022-10-14T12:24:55.784Z,14.95
2022-10-14T12:27:25.776Z,14.43
2022-10-14T12:29:55.057Z,11.90
2022-10-14T12:32:33.104Z,13.43
2022-10-14T12:35:22.785Z,15.02
2022-10-14T12:37:50.574Z,9.98
2022-10-14T12:40:23.768Z,12.95
2022-10-14T12:43:03.311Z,12.35
2022-10-14T12:45:33.677Z,10.85
2022-10-14T12:48:20.680Z,14.70
2022-10-14T12:50:49.640Z,10.95
2022-10-14T12:53:26.974Z,9.75
2022-10-14T12:55:56.984Z,13.98
2022-10-14T12:58:29.909Z,11.45
2022-10-14T13:01:06.442Z,9.77
2022-10-14T13:03:42.369Z,17.95
2022-10-14T13:06:28.333Z,10.63
2022-10-14T13:09:13.239Z,9.00
2022-10-14T13:11:44.853Z,12.95
2022-10-14T13:14:27.025Z,8.15
2022-10-14T13:16:56.760Z,10.38
2022-10-14T13:19:32.929Z,10.30
2022-10-14T13:22:04.437Z,15.38
2022-10-14T13:24:37.889Z,13.60
2022-10-14T13:27:36.625Z,10.73
2022-10-14T13:30:34.054Z,9.50
2022-10-14T13:33:18.315Z,10.73
2022-10-14T13:35:49.054Z,13.18
2022-10-14T13:38:19.842Z,10.48
2022-10-14T13:40:52.468Z,10.68
2022-10-14T13:43:40.409Z,10.90
2022-10-14T13:46:13.411Z,10.70
2022-10-14T13:48:46.799Z,12.40
2022-10-14T13:51:24.616Z,10.32
2022-10-14T13:54:08.333Z,8.35
2022-10-14T13:56:34.977Z,8.88
2022-10-14T13:59:01.643Z,8.77
2022-10-14T14:01:36.272Z,10.48
2022-10-14T14:04:03.126Z,8.50
2022-10-14T14:06:35.964Z,9.23
2022-10-14T14:09:21.867Z,9.93
2022-10-14T14:11:50.014Z,4.90
2022-10-14T14:14:40.669Z,8.38
2022-10-14T14:17:15.724Z,13.88
2022-10-14T14:19:47.324Z,9.43
2022-10-14T14:22:13.843Z,6.53
2022-10-14T14:24:40.697Z,12.23
2022-10-14T14:27:13.941Z,7.15
2022-10-14T14:29:43.842Z,6.07
2022-10-14T14:32:30.015Z,8.10
2022-10-14T14:34:57.339Z,5.97
2022-10-14T14:37:52.950Z,11.02
2022-10-14T14:40:21.254Z,6.87
2022-10-14T14:42:52.193Z,7.00
2022-10-14T14:45:29.245Z,7.15
2022-10-14T14:47:58.564Z,4.82
2022-10-14T14:50:33.369Z,5.68
2022-10-14T14:53:12.104Z,4.38
2022-10-14T14:55:38.713Z,7.93
2022-10-14T14:58:13.208Z,12.90
2022-10-14T15:00:45.365Z,6.63
2022-10-14T15:03:12.026Z,8.45
2022-10-14T15:05:38.657Z,9.27
2022-10-14T15:08:05.533Z,7.70
2022-10-14T15:10:32.126Z,5.57
2022-10-14T15:13:02.441Z,5.78
2022-10-14T15:15:32.302Z,4.28
2022-10-14T15:18:15.102Z,8.27
2022-10-14T15:20:43.217Z,7.00
2022-10-14T15:23:38.894Z,11.05
2022-10-14T15:26:22.964Z,13.05
2022-10-14T15:29:07.955Z,8.30
2022-10-14T15:31:36.191Z,9.73
2022-10-14T15:34:03.392Z,8.00
2022-10-14T15:36:32.742Z,8.00
2022-10-14T15:39:01.447Z,10.20
2022-10-14T15:41:28.864Z,4.65
2022-10-14T15:43:55.503Z,7.78
2022-10-14T15:46:41.449Z,6.07
2022-10-14T15:49:16.110Z,7.07
2022-10-14T15:51:42.705Z,9.80
2022-10-14T15:54:12.518Z,11.40
2022-10-14T15:56:42.158Z,8.65
2022-10-14T15:59:08.865Z,11.18
2022-10-14T16:01:38.035Z,10.95
2022-10-14T16:04:05.183Z,10.73
2022-10-14T16:06:32.590Z,5.38
2022-10-14T16:08:59.236Z,6.00
2022-10-14T16:11:27.833Z,8.32
2022-10-14T16:13:54.583Z,5.43
2022-10-14T16:16:31.968Z,8.48
2022-10-14T16:19:02.281Z,5.47
2022-10-14T16:21:32.001Z,6.82
2022-10-14T16:23:59.055Z,5.05
2022-10-14T16:26:26.416Z,5.32
2022-10-14T16:28:53.613Z,5.13
2022-10-14T16:31:21.230Z,10.15
2022-10-14T16:33:51.499Z,7.78
2022-10-14T16:36:18.129Z,9.20
2022-10-14T16:38:44.723Z,7.82
2022-10-14T16:41:12.192Z,10.02
2022-10-14T16:43:38.879Z,7.22
2022-10-14T16:46:07.501Z,8.02
2022-10-14T16:48:36.169Z,9.68
2022-10-14T16:51:03.651Z,10.07
2022-10-14T16:53:40.382Z,11.52
2022-10-14T16:56:31.308Z,8.32
2022-10-14T16:58:59.620Z,5.90
2022-10-14T17:01:26.645Z,9.23
2022-10-14T17:03:55.461Z,7.30
2022-10-14T17:06:25.817Z,9.75
2022-10-14T17:08:52.674Z,9.73
2022-10-14T17:11:19.606Z,6.22
2022-10-14T17:13:46.567Z,11.10
2022-10-14T17:16:13.367Z,8.02
2022-10-14T17:18:40.249Z,8.13
2022-10-14T17:21:10.547Z,9.02
2022-10-14T17:23:40.172Z,9.27
2022-10-14T17:26:06.924Z,5.60
2022-10-14T17:28:33.598Z,7.90
2022-10-14T17:31:01.395Z,9.65
2022-10-14T17:33:28.196Z,6.80
2022-10-14T17:35:59.929Z,9.68
2022-10-14T17:38:28.356Z,11.50
2022-10-14T17:41:09.838Z,10.02
2022-10-14T17:43:37.440Z,10.50
2022-10-14T17:48:42.478Z,8.15
2022-10-14T17:51:10.565Z,11.57
2022-10-14T17:53:37.487Z,8.10
2022-10-14T17:56:09.591Z,8.20
2022-10-14T17:58:36.285Z,10.65
2022-10-14T18:01:11.742Z,8.80
2022-10-14T18:03:41.852Z,7.65
2022-10-14T18:06:17.560Z,10.32
2022-10-14T18:08:46.534Z,18.65
2022-10-14T18:11:13.335Z,11.60
2022-10-14T18:16:14.274Z,11.35
2022-10-14T18:18:41.843Z,9.30
2022-10-14T18:21:09.820Z,7.25
2022-10-14T18:23:38.989Z,7.50
2022-10-14T18:26:25.077Z,15.90
2022-10-14T18:28:53.836Z,11.13
2022-10-14T18:31:23.467Z,6.95
2022-10-14T18:33:51.410Z,9.10
2022-10-14T18:36:22.662Z,8.30
2022-10-14T18:38:54.234Z,10.35
2022-10-14T18:41:21.492Z,12.10
2022-10-14T18:43:49.090Z,8.23
2022-10-14T18:46:23.779Z,9.80
2022-10-14T18:48:52.496Z,11.82
2022-10-14T18:51:25.423Z,12.02
2022-10-14T18:53:55.118Z,14.10
2022-10-14T18:56:24.550Z,12.02
2022-10-14T18:59:09.037Z,9.70
2022-10-14T19:01:37.372Z,9.88
2022-10-14T19:04:05.915Z,10.00
2022-10-14T19:06:34.157Z,9.98
2022-10-14T19:09:01.917Z,7.10
2022-10-14T19:11:30.232Z,8.43
2022-10-14T19:13:58.161Z,14.23
2022-10-14T19:16:33.649Z,12.00
2022-10-14T19:19:03.954Z,8.40
2022-10-14T19:21:31.158Z,8.10
2022-10-14T19:24:01.088Z,11.57
2022-10-14T19:26:33.533Z,8.75
2022-10-14T19:29:01.355Z,13.63
2022-10-14T19:31:33.536Z,10.80
2022-10-14T19:34:02.037Z,9.98
2022-10-14T19:36:28.993Z,9.93
2022-10-14T19:38:58.475Z,13.13
2022-10-14T19:41:27.050Z,11.95
2022-10-14T19:43:53.877Z,8.20
2022-10-14T19:46:27.499Z,10.45
2022-10-14T19:49:05.242Z,13.90
2022-10-14T19:51:33.740Z,10.43
2022-10-14T19:54:00.714Z,14.68
2022-10-14T19:56:28.211Z,12.55
2022-10-14T19:58:57.298Z,9.07
2022-10-14T20:01:26.073Z,9.70
2022-10-14T20:03:53.457Z,8.25
2022-10-14T20:06:21.441Z,7.30
2022-10-14T20:08:48.390Z,7.22
2022-10-14T20:11:18.547Z,10.05
2022-10-14T20:13:45.717Z,6.13
2022-10-14T20:16:13.037Z,7.78
2022-10-14T20:18:39.936Z,6.63
2022-10-14T20:21:08.124Z,8.88
2022-10-14T20:23:36.614Z,9.75
2022-10-14T20:26:05.587Z,9.57
2022-10-14T20:28:34.819Z,9.15
2022-10-14T20:31:01.397Z,9.80
2022-10-14T20:33:31.584Z,16.27
2022-10-14T20:36:04.046Z,12.70
2022-10-14T20:38:31.081Z,17.50
2022-10-14T20:41:21.181Z,14.15
2022-10-14T20:43:48.607Z,16.13
2022-10-14T20:46:15.547Z,14.27
2022-10-14T20:48:42.787Z,13.20
2022-10-14T20:51:12.528Z,11.20
2022-10-14T20:56:12.400Z,10.70
2022-10-14T20:58:39.761Z,11.88
2022-10-14T21:01:07.788Z,12.65
2022-10-14T21:03:34.850Z,13.57
2022-10-14T21:06:06.685Z,14.63
2022-10-14T21:08:33.681Z,14.20
2022-10-14T21:11:02.841Z,16.70
2022-10-14T21:13:30.341Z,17.63
2022-10-14T21:15:57.466Z,20.25
2022-10-14T21:18:24.430Z,17.02
2022-10-14T21:23:23.125Z,21.75
2022-10-14T21:25:57.231Z,22.00
2022-10-14T21:30:50.803Z,19.90
2022-10-14T21:33:17.417Z,20.90
2022-10-14T21:45:25.468Z,27.80
2022-10-14T21:47:54.493Z,27.52
2022-10-14T21:50:35.765Z,29.23
2022-10-14T21:54:00.180Z,26.92
2022-10-14T22:01:40.261Z,26.65
2022-10-14T22:04:24.458Z,30.10
2022-10-14T22:41:48.484Z,28.20
2022-10-14T22:47:35.356Z,30.58
2022-10-14T22:50:12.767Z,28.95
2022-10-14T22:53:48.421Z,27.92
